createdAt,value
2017-10-26T00:01:03.031Z,17.86
2017-10-26T00:03:30.583Z,17.89
2017-10-26T00:05:58.303Z,17.89
2017-10-26T00:08:25.831Z,17.78
2017-10-26T00:10:53.363Z,17.83
2017-10-26T00:13:21.332Z,17.84
2017-10-26T00:15:48.859Z,17.83
2017-10-26T00:18:16.457Z,17.79
2017-10-26T00:20:45.036Z,17.66
2017-10-26T00:23:12.565Z,17.50
2017-10-26T00:25:40.085Z,17.26
2017-10-26T00:28:07.915Z,17.33
2017-10-26T00:30:35.477Z,17.24
2017-10-26T00:33:03.009Z,17.11
2017-10-26T00:35:31.104Z,16.82
2017-10-26T00:37:58.663Z,16.66
2017-10-26T00:40:26.234Z,16.74
2017-10-26T00:42:53.991Z,16.72
2017-10-26T00:45:21.515Z,16.70
2017-10-26T00:47:49.044Z,16.61
2017-10-26T00:50:16.885Z,16.55
2017-10-26T00:52:44.428Z,16.48
2017-10-26T00:55:11.988Z,16.31
2017-10-26T00:57:39.642Z,16.39
2017-10-26T01:00:07.164Z,16.39
2017-10-26T01:02:34.688Z,16.32
2017-10-26T01:05:02.255Z,16.10
2017-10-26T01:07:29.807Z,15.85
2017-10-26T01:09:57.334Z,15.92
2017-10-26T01:12:24.904Z,15.97
2017-10-26T01:14:52.461Z,16.09
2017-10-26T01:17:20.443Z,16.02
2017-10-26T01:19:47.994Z,15.97
2017-10-26T01:22:15.546Z,15.91
2017-10-26T01:24:43.106Z,15.96
2017-10-26T01:27:11.689Z,15.88
2017-10-26T01:29:39.250Z,15.87
2017-10-26T01:32:06.835Z,15.80
2017-10-26T01:34:34.550Z,15.65
2017-10-26T01:37:02.071Z,15.55
2017-10-26T01:39:29.690Z,15.65
2017-10-26T01:41:57.352Z,15.63
2017-10-26T01:44:24.887Z,15.69
2017-10-26T01:46:52.411Z,15.72
2017-10-26T01:49:20.849Z,15.81
2017-10-26T01:51:48.407Z,15.74
2017-10-26T01:54:15.967Z,15.80
2017-10-26T01:56:43.555Z,16.00
2017-10-26T01:59:11.095Z,16.10
2017-10-26T02:01:38.643Z,16.07
2017-10-26T02:04:06.407Z,15.98
2017-10-26T02:06:33.948Z,16.04
2017-10-26T02:09:01.524Z,15.84
2017-10-26T02:11:29.289Z,15.82
2017-10-26T02:13:56.848Z,16.03
2017-10-26T02:16:24.408Z,16.03
2017-10-26T02:18:52.172Z,16.08
2017-10-26T02:21:19.732Z,15.98
2017-10-26T02:23:47.290Z,16.09
2017-10-26T02:26:15.053Z,16.08
2017-10-26T02:28:54.616Z,16.21
2017-10-26T02:31:34.052Z,15.90
2017-10-26T02:34:01.591Z,16.20
2017-10-26T02:36:29.150Z,16.25
2017-10-26T02:38:56.913Z,16.14
2017-10-26T02:41:24.453Z,15.94
2017-10-26T02:43:51.977Z,15.85
2017-10-26T02:46:19.796Z,15.71
2017-10-26T02:48:48.276Z,15.61
2017-10-26T02:51:15.819Z,15.61
2017-10-26T02:53:43.599Z,15.31
2017-10-26T02:56:11.158Z,15.38
2017-10-26T02:58:38.718Z,15.57
2017-10-26T03:01:06.481Z,15.50
2017-10-26T03:03:34.020Z,15.52
2017-10-26T03:06:01.543Z,15.38
2017-10-26T03:08:29.575Z,15.29
2017-10-26T03:10:57.128Z,15.38
2017-10-26T03:13:24.686Z,15.44
2017-10-26T03:15:52.451Z,15.50
2017-10-26T03:18:20.009Z,15.32
2017-10-26T03:20:47.569Z,15.10
2017-10-26T03:23:15.332Z,15.02
2017-10-26T03:25:42.893Z,14.77
2017-10-26T03:28:10.463Z,14.83
2017-10-26T03:30:38.411Z,14.63
2017-10-26T03:33:05.980Z,14.61
2017-10-26T03:35:33.538Z,14.32
2017-10-26T03:38:01.507Z,14.30
2017-10-26T03:40:29.474Z,14.47
2017-10-26T03:42:57.050Z,14.46
2017-10-26T03:45:24.887Z,14.60
2017-10-26T03:47:53.284Z,14.71
2017-10-26T03:50:20.839Z,14.56
2017-10-26T03:52:48.419Z,14.59
2017-10-26T03:55:15.959Z,14.78
2017-10-26T03:57:43.515Z,14.71
2017-10-26T04:00:11.262Z,14.72
2017-10-26T04:02:38.798Z,14.69
2017-10-26T04:05:07.114Z,14.98
2017-10-26T04:07:34.881Z,15.29
2017-10-26T04:10:02.438Z,15.28
2017-10-26T04:12:29.999Z,15.30
2017-10-26T04:14:57.760Z,15.36
2017-10-26T04:17:25.321Z,15.19
2017-10-26T04:19:52.879Z,15.29
2017-10-26T04:22:20.622Z,15.34
2017-10-26T04:24:48.144Z,15.41
2017-10-26T04:27:15.673Z,15.37
2017-10-26T04:29:44.139Z,15.30
2017-10-26T04:32:11.676Z,14.99
2017-10-26T04:34:39.211Z,15.18
2017-10-26T04:37:07.021Z,14.92
2017-10-26T04:39:34.581Z,15.02
2017-10-26T04:42:02.107Z,15.09
2017-10-26T04:44:29.906Z,15.00
2017-10-26T04:46:57.443Z,14.77
2017-10-26T04:49:24.975Z,14.94
2017-10-26T04:51:52.686Z,14.59
2017-10-26T04:54:20.242Z,14.56
2017-10-26T04:56:47.801Z,14.81
2017-10-26T04:59:15.979Z,14.70
2017-10-26T05:01:44.457Z,14.51
2017-10-26T05:04:12.018Z,14.49
2017-10-26T05:06:39.781Z,14.63
2017-10-26T05:09:07.337Z,14.36
2017-10-26T05:11:34.904Z,14.42
2017-10-26T05:14:02.752Z,14.36
2017-10-26T05:16:30.323Z,14.60
2017-10-26T05:18:57.882Z,14.45
2017-10-26T05:21:25.646Z,14.63
2017-10-26T05:23:53.614Z,14.57
2017-10-26T05:26:21.133Z,14.87
2017-10-26T05:28:48.731Z,14.99
2017-10-26T05:31:16.909Z,14.86
2017-10-26T05:33:44.464Z,14.96
2017-10-26T05:36:12.229Z,14.87
2017-10-26T05:38:40.237Z,14.84
2017-10-26T05:41:07.780Z,14.90
2017-10-26T05:43:35.368Z,14.88
2017-10-26T05:46:02.899Z,14.84
2017-10-26T05:48:30.438Z,14.72
2017-10-26T05:50:58.021Z,14.84
2017-10-26T05:53:25.571Z,14.47
2017-10-26T05:55:53.112Z,14.74
2017-10-26T05:58:20.876Z,14.47
2017-10-26T06:00:48.452Z,14.48
2017-10-26T06:03:15.996Z,14.41
2017-10-26T06:05:43.843Z,14.54
2017-10-26T06:08:11.419Z,14.68
2017-10-26T06:10:38.978Z,14.78
2017-10-26T06:13:06.679Z,14.42
2017-10-26T06:15:34.220Z,14.46
2017-10-26T06:18:02.271Z,14.32
2017-10-26T06:20:29.846Z,14.13
2017-10-26T06:22:57.388Z,14.60
2017-10-26T06:25:24.948Z,14.36
2017-10-26T06:27:52.918Z,14.19
2017-10-26T06:30:20.475Z,14.20
2017-10-26T06:32:48.016Z,14.63
2017-10-26T06:35:15.779Z,14.60
2017-10-26T06:37:43.363Z,14.68
2017-10-26T06:40:10.917Z,14.66
2017-10-26T06:42:38.885Z,14.61
2017-10-26T06:45:06.444Z,14.60
2017-10-26T06:47:33.971Z,14.75
2017-10-26T06:50:01.854Z,14.58
2017-10-26T06:52:29.430Z,14.74
2017-10-26T06:54:56.963Z,14.46
2017-10-26T06:57:24.547Z,14.83
2017-10-26T06:59:52.515Z,14.78
2017-10-26T07:02:20.043Z,15.21
2017-10-26T07:04:47.819Z,14.65
2017-10-26T07:07:15.352Z,14.72
2017-10-26T07:09:42.893Z,14.48
2017-10-26T07:12:10.566Z,14.17
2017-10-26T07:14:38.111Z,14.45
2017-10-26T07:17:05.637Z,14.61
2017-10-26T07:19:33.383Z,14.92
2017-10-26T07:22:00.924Z,14.85
2017-10-26T07:24:28.450Z,15.11
2017-10-26T07:26:56.191Z,15.06
2017-10-26T07:29:23.718Z,15.09
2017-10-26T07:31:51.297Z,15.72
2017-10-26T07:34:19.062Z,15.39
2017-10-26T07:36:46.632Z,15.58
2017-10-26T07:39:14.178Z,15.64
2017-10-26T07:41:42.149Z,15.50
2017-10-26T07:44:09.773Z,15.83
2017-10-26T07:46:37.301Z,15.52
2017-10-26T07:49:05.644Z,15.87
2017-10-26T07:51:33.172Z,16.07
2017-10-26T07:54:00.762Z,16.78
2017-10-26T07:56:28.455Z,17.13
2017-10-26T07:58:55.987Z,17.26
2017-10-26T08:01:23.520Z,17.28
2017-10-26T08:03:51.088Z,17.31
2017-10-26T08:06:19.069Z,16.45
2017-10-26T08:08:46.629Z,16.76
2017-10-26T08:11:14.391Z,16.67
2017-10-26T08:13:42.003Z,16.99
2017-10-26T08:16:09.527Z,16.82
2017-10-26T08:18:37.211Z,16.51
2017-10-26T08:21:04.732Z,17.27
2017-10-26T08:23:32.394Z,17.77
2017-10-26T08:25:59.964Z,18.20
2017-10-26T08:28:27.500Z,18.40
2017-10-26T08:30:55.067Z,18.12
2017-10-26T08:33:22.813Z,18.60
2017-10-26T08:35:50.335Z,18.35
2017-10-26T08:38:18.772Z,17.63
2017-10-26T08:40:46.346Z,18.01
2017-10-26T08:43:13.873Z,17.51
2017-10-26T08:45:41.393Z,17.41
2017-10-26T08:48:09.532Z,17.64
2017-10-26T08:50:37.069Z,17.27
2017-10-26T08:53:04.591Z,17.45
2017-10-26T08:55:32.300Z,17.73
2017-10-26T08:57:59.859Z,17.13
2017-10-26T09:00:27.419Z,17.37
2017-10-26T09:02:55.181Z,17.61
2017-10-26T09:05:22.740Z,18.02
2017-10-26T09:07:50.291Z,18.64
2017-10-26T09:10:17.858Z,20.18
2017-10-26T09:12:45.420Z,23.33
2017-10-26T09:15:12.978Z,24.84
2017-10-26T09:17:41.663Z,25.49
2017-10-26T09:20:09.223Z,27.77
2017-10-26T09:22:36.797Z,28.71
2017-10-26T09:25:04.653Z,28.33
2017-10-26T09:27:32.784Z,29.79
2017-10-26T09:30:00.381Z,29.03
2017-10-26T09:32:28.127Z,29.53
2017-10-26T09:34:55.649Z,30.94
2017-10-26T09:37:23.185Z,30.25
2017-10-26T09:39:51.232Z,31.05
2017-10-26T09:42:18.791Z,30.49
2017-10-26T09:44:46.315Z,31.65
2017-10-26T09:47:13.990Z,32.29
2017-10-26T09:49:42.391Z,30.82
2017-10-26T09:52:09.950Z,32.50
2017-10-26T09:54:37.508Z,33.47
2017-10-26T09:57:05.066Z,33.41
2017-10-26T09:59:32.626Z,32.98
2017-10-26T10:02:01.311Z,34.53
2017-10-26T10:04:28.871Z,36.09
2017-10-26T10:06:56.430Z,35.39
2017-10-26T10:09:24.083Z,36.09
2017-10-26T10:11:51.599Z,36.94
2017-10-26T10:14:19.112Z,37.07
2017-10-26T10:16:47.632Z,37.96
2017-10-26T10:19:15.152Z,38.38
2017-10-26T10:21:42.707Z,38.19
2017-10-26T10:24:10.573Z,39.37
2017-10-26T10:26:39.506Z,40.03
2017-10-26T10:29:07.023Z,39.03
2017-10-26T10:31:34.786Z,39.24
2017-10-26T10:34:02.344Z,41.06
2017-10-26T10:36:30.314Z,39.54
2017-10-26T10:38:58.082Z,38.81
2017-10-26T10:41:25.602Z,41.73
2017-10-26T10:43:53.601Z,41.02
2017-10-26T10:46:21.299Z,41.23
2017-10-26T10:48:48.821Z,40.46
2017-10-26T10:51:16.339Z,42.00
2017-10-26T10:53:44.234Z,44.08
2017-10-26T10:56:11.759Z,44.10
2017-10-26T10:58:39.281Z,40.82
2017-10-26T11:01:07.011Z,40.31
2017-10-26T11:03:34.531Z,38.01
2017-10-26T11:06:02.048Z,38.63
2017-10-26T11:08:29.605Z,37.36
2017-10-26T11:10:57.127Z,36.07
2017-10-26T11:13:25.134Z,32.67
2017-10-26T11:15:52.897Z,31.36
2017-10-26T11:18:20.412Z,30.04
2017-10-26T11:20:47.939Z,28.87
2017-10-26T11:23:15.693Z,28.27
2017-10-26T11:25:43.211Z,28.46
2017-10-26T11:28:10.735Z,29.75
2017-10-26T11:30:38.457Z,33.47
2017-10-26T11:33:06.017Z,35.66
2017-10-26T11:35:33.576Z,37.40
2017-10-26T11:38:01.319Z,37.86
2017-10-26T11:40:28.835Z,37.63
2017-10-26T11:42:56.387Z,38.05
2017-10-26T11:45:24.026Z,37.86
2017-10-26T11:47:51.575Z,37.20
2017-10-26T11:50:19.136Z,36.53
2017-10-26T11:52:46.698Z,36.72
2017-10-26T11:55:14.254Z,38.80
2017-10-26T11:57:43.391Z,39.42
2017-10-26T12:00:11.026Z,40.92
2017-10-26T12:02:38.679Z,39.68
2017-10-26T12:05:06.217Z,39.60
2017-10-26T12:07:33.784Z,39.12
2017-10-26T12:10:02.271Z,38.39
2017-10-26T12:12:29.798Z,35.70
2017-10-26T12:14:57.390Z,32.82
2017-10-26T12:17:24.915Z,31.22
2017-10-26T12:19:52.448Z,29.81
2017-10-26T12:22:20.046Z,28.59
2017-10-26T12:24:47.625Z,27.43
2017-10-26T12:27:15.185Z,27.38
2017-10-26T12:29:43.051Z,26.83
2017-10-26T12:32:10.623Z,26.58
2017-10-26T12:34:38.169Z,26.56
2017-10-26T12:37:06.019Z,25.99
2017-10-26T12:39:33.780Z,26.18
2017-10-26T12:42:01.376Z,25.45
2017-10-26T12:44:28.928Z,25.49
2017-10-26T12:46:56.476Z,25.76
2017-10-26T12:49:24.052Z,25.49
2017-10-26T12:51:51.902Z,25.53
2017-10-26T12:54:19.584Z,25.04
2017-10-26T12:56:47.147Z,25.07
2017-10-26T12:59:14.812Z,25.19
2017-10-26T13:01:42.352Z,25.11
2017-10-26T13:04:09.906Z,24.83
2017-10-26T13:06:37.755Z,24.85
2017-10-26T13:09:05.375Z,24.49
2017-10-26T13:11:32.895Z,24.12
2017-10-26T13:14:00.739Z,23.66
2017-10-26T13:16:28.314Z,23.74
2017-10-26T13:18:55.871Z,24.03
2017-10-26T13:21:23.435Z,24.00
2017-10-26T13:23:50.990Z,23.97
2017-10-26T13:26:19.495Z,23.96
2017-10-26T13:28:47.059Z,23.74
2017-10-26T13:31:14.595Z,23.88
2017-10-26T13:33:42.112Z,23.97
2017-10-26T13:36:09.905Z,23.40
2017-10-26T13:38:37.424Z,23.38
2017-10-26T13:41:04.952Z,22.78
2017-10-26T13:43:32.674Z,22.86
2017-10-26T13:46:01.174Z,23.04
2017-10-26T13:48:28.704Z,22.96
2017-10-26T13:50:56.376Z,23.51
2017-10-26T13:53:23.953Z,23.75
2017-10-26T13:55:51.478Z,23.74
2017-10-26T13:58:19.275Z,23.52
2017-10-26T14:00:46.796Z,23.54
2017-10-26T14:03:14.327Z,23.39
2017-10-26T14:05:41.887Z,23.72
2017-10-26T14:08:09.414Z,23.21
2017-10-26T14:10:36.969Z,23.61
2017-10-26T14:13:04.938Z,23.69
2017-10-26T14:15:32.502Z,23.74
2017-10-26T14:18:00.043Z,23.81
2017-10-26T14:20:27.904Z,23.61
2017-10-26T14:22:55.447Z,23.56
2017-10-26T14:25:22.995Z,23.25
2017-10-26T14:27:50.961Z,23.30
2017-10-26T14:30:18.514Z,23.04
2017-10-26T14:32:46.044Z,23.14
2017-10-26T14:35:13.930Z,23.02
2017-10-26T14:37:42.475Z,22.92
2017-10-26T14:40:10.060Z,22.68
2017-10-26T14:42:37.998Z,22.30
2017-10-26T14:45:05.768Z,22.51
2017-10-26T14:47:33.346Z,22.67
2017-10-26T14:50:00.931Z,22.49
2017-10-26T14:52:28.547Z,22.47
2017-10-26T14:54:56.688Z,22.58
2017-10-26T14:57:24.488Z,22.68
2017-10-26T14:59:52.081Z,22.61
2017-10-26T15:02:19.657Z,22.57
2017-10-26T15:04:47.775Z,22.41
2017-10-26T15:07:15.658Z,22.33
2017-10-26T15:09:43.406Z,22.24
2017-10-26T15:12:11.169Z,22.15
2017-10-26T15:14:38.942Z,22.04
2017-10-26T15:17:06.494Z,22.01
2017-10-26T15:19:34.256Z,21.79
2017-10-26T15:22:01.919Z,21.69
2017-10-26T15:24:29.682Z,21.56
2017-10-26T15:26:57.260Z,21.54
2017-10-26T15:29:24.812Z,21.43
2017-10-26T15:31:52.361Z,21.27
2017-10-26T15:34:20.124Z,21.21
2017-10-26T15:36:47.703Z,21.14
2017-10-26T15:39:15.273Z,21.05
2017-10-26T15:41:42.837Z,21.06
2017-10-26T15:44:10.975Z,20.96
2017-10-26T15:46:38.635Z,20.67
2017-10-26T15:49:06.506Z,20.65
2017-10-26T15:51:34.062Z,20.53
2017-10-26T15:54:01.724Z,20.49
2017-10-26T15:56:29.590Z,20.37
2017-10-26T15:58:57.165Z,20.11
2017-10-26T16:01:24.720Z,20.20
2017-10-26T16:03:52.482Z,20.03
2017-10-26T16:06:20.338Z,19.94
2017-10-26T16:08:47.955Z,19.75
2017-10-26T16:11:15.751Z,19.71
2017-10-26T16:13:43.368Z,19.62
2017-10-26T16:16:11.089Z,19.55
2017-10-26T16:18:38.967Z,19.43
2017-10-26T16:21:06.720Z,19.25
2017-10-26T16:23:34.378Z,19.13
2017-10-26T16:26:02.012Z,19.02
2017-10-26T16:28:29.717Z,18.94
2017-10-26T16:30:57.577Z,18.87
2017-10-26T16:33:25.353Z,18.84
2017-10-26T16:35:53.095Z,18.82
2017-10-26T16:38:20.655Z,18.78
2017-10-26T16:40:48.403Z,18.72
2017-10-26T16:43:15.945Z,18.66
2017-10-26T16:45:43.538Z,18.57
2017-10-26T16:48:11.297Z,18.55
2017-10-26T16:50:38.888Z,18.50
2017-10-26T16:53:06.459Z,18.44
2017-10-26T16:55:34.081Z,18.40
2017-10-26T16:58:01.696Z,18.37
2017-10-26T17:00:29.534Z,18.35
2017-10-26T17:02:57.562Z,18.33
2017-10-26T17:05:25.347Z,18.31
2017-10-26T17:07:52.980Z,18.30
2017-10-26T17:10:20.884Z,18.27
2017-10-26T17:12:48.633Z,18.21
2017-10-26T17:15:16.269Z,18.19
2017-10-26T17:17:44.059Z,18.19
2017-10-26T17:20:12.415Z,18.18
2017-10-26T17:22:40.085Z,18.11
2017-10-26T17:25:08.272Z,18.07
2017-10-26T17:27:35.843Z,17.99
2017-10-26T17:30:03.390Z,17.97
2017-10-26T17:32:31.165Z,17.94
2017-10-26T17:34:58.737Z,17.95
2017-10-26T17:37:26.472Z,17.90
2017-10-26T17:39:54.270Z,17.84
2017-10-26T17:42:21.848Z,17.80
2017-10-26T17:44:49.563Z,17.83
2017-10-26T17:47:17.326Z,17.87
2017-10-26T17:49:45.096Z,17.91
2017-10-26T17:52:12.759Z,17.83
2017-10-26T17:54:40.780Z,17.86
2017-10-26T17:57:08.405Z,17.79
2017-10-26T17:59:36.111Z,17.80
2017-10-26T18:02:04.137Z,17.80
2017-10-26T18:04:31.984Z,17.79
2017-10-26T18:06:59.815Z,17.78
2017-10-26T18:09:27.658Z,17.56
2017-10-26T18:11:55.396Z,17.68
2017-10-26T18:14:23.143Z,17.65
2017-10-26T18:16:51.225Z,17.68
2017-10-26T18:19:19.797Z,17.58
2017-10-26T18:21:47.577Z,17.56
2017-10-26T18:24:15.633Z,17.62
2017-10-26T18:26:43.292Z,17.67
2017-10-26T18:29:11.161Z,17.65
2017-10-26T18:31:39.229Z,17.65
2017-10-26T18:34:07.731Z,17.57
2017-10-26T18:36:36.610Z,17.60
2017-10-26T18:39:04.839Z,17.60
2017-10-26T18:41:33.370Z,17.53
2017-10-26T18:44:01.129Z,17.56
2017-10-26T18:46:29.000Z,17.54
2017-10-26T18:48:57.356Z,17.51
2017-10-26T18:51:25.152Z,17.36
2017-10-26T18:53:53.303Z,17.43
2017-10-26T18:56:21.131Z,17.40
2017-10-26T18:58:49.039Z,17.41
2017-10-26T19:01:17.032Z,17.37
2017-10-26T19:03:44.775Z,17.33
2017-10-26T19:06:12.634Z,17.23
2017-10-26T19:08:41.226Z,17.28
2017-10-26T19:11:10.780Z,17.24
2017-10-26T19:13:39.026Z,17.20
2017-10-26T19:16:07.175Z,17.20
2017-10-26T19:18:34.960Z,17.22
2017-10-26T19:21:03.111Z,17.13
2017-10-26T19:23:30.937Z,17.15
2017-10-26T19:25:59.687Z,16.92
2017-10-26T19:28:27.441Z,16.88
2017-10-26T19:30:56.432Z,16.77
2017-10-26T19:33:24.493Z,16.91
2017-10-26T19:35:52.274Z,17.00
2017-10-26T19:38:20.530Z,16.99
2017-10-26T19:40:48.464Z,16.98
2017-10-26T19:43:16.281Z,16.93
2017-10-26T19:45:44.112Z,16.92
2017-10-26T19:48:11.795Z,16.88
2017-10-26T19:50:39.672Z,16.71
2017-10-26T19:53:07.623Z,16.67
2017-10-26T19:55:35.405Z,16.58
2017-10-26T19:58:03.166Z,16.66
2017-10-26T20:00:31.125Z,16.71
2017-10-26T20:02:58.886Z,16.60
2017-10-26T20:05:26.554Z,16.48
2017-10-26T20:07:54.413Z,16.41
2017-10-26T20:10:22.013Z,16.45
2017-10-26T20:12:49.667Z,16.48
2017-10-26T20:15:17.607Z,16.53
2017-10-26T20:17:46.299Z,16.54
2017-10-26T20:20:13.949Z,16.40
2017-10-26T20:22:43.052Z,16.41
2017-10-26T20:25:10.810Z,16.44
2017-10-26T20:27:38.580Z,16.39
2017-10-26T20:30:06.543Z,16.40
2017-10-26T20:32:35.212Z,16.37
2017-10-26T20:35:03.031Z,16.38
2017-10-26T20:37:30.932Z,16.38
2017-10-26T20:39:58.572Z,16.39
2017-10-26T20:42:26.131Z,16.35
2017-10-26T20:44:53.800Z,16.36
2017-10-26T20:47:21.510Z,16.22
2017-10-26T20:49:55.208Z,16.29
2017-10-26T20:52:28.406Z,16.26
2017-10-26T20:55:01.474Z,16.26
2017-10-26T20:57:34.421Z,16.19
2017-10-26T21:00:07.743Z,16.15
2017-10-26T21:02:41.178Z,16.14
2017-10-26T21:05:15.022Z,16.04
2017-10-26T21:07:48.368Z,16.05
2017-10-26T21:10:21.747Z,15.98
2017-10-26T21:12:55.084Z,16.13
2017-10-26T21:15:22.834Z,16.08
2017-10-26T21:17:50.482Z,16.10
2017-10-26T21:20:18.040Z,16.08
2017-10-26T21:22:45.692Z,15.96
2017-10-26T21:25:13.264Z,16.09
2017-10-26T21:27:40.818Z,16.02
2017-10-26T21:30:08.583Z,15.72
2017-10-26T21:32:36.149Z,16.01
2017-10-26T21:35:03.684Z,16.00
2017-10-26T21:37:31.239Z,16.04
2017-10-26T21:39:58.760Z,16.06
2017-10-26T21:42:26.278Z,15.97
2017-10-26T21:44:54.040Z,15.91
2017-10-26T21:47:21.617Z,15.93
2017-10-26T21:49:49.150Z,16.02
2017-10-26T21:52:16.725Z,15.97
2017-10-26T21:54:44.247Z,15.94
2017-10-26T21:57:11.772Z,15.96
2017-10-26T21:59:39.598Z,16.00
2017-10-26T22:02:07.165Z,16.01
2017-10-26T22:04:34.717Z,16.02
2017-10-26T22:07:02.486Z,16.04
2017-10-26T22:09:30.020Z,15.99
2017-10-26T22:11:57.544Z,16.05
2017-10-26T22:14:25.112Z,16.01
2017-10-26T22:16:52.652Z,16.01
2017-10-26T22:19:20.180Z,15.96
2017-10-26T22:21:48.042Z,15.98
2017-10-26T22:24:15.600Z,16.02
2017-10-26T22:26:43.166Z,16.05
2017-10-26T22:29:10.923Z,16.07
2017-10-26T22:31:38.483Z,16.09
2017-10-26T22:34:06.042Z,15.99
2017-10-26T22:36:33.783Z,15.96
2017-10-26T22:39:01.304Z,15.97
2017-10-26T22:41:28.827Z,16.00
2017-10-26T22:43:56.387Z,15.93
2017-10-26T22:46:24.144Z,16.15
2017-10-26T22:48:51.734Z,16.24
2017-10-26T22:51:19.311Z,16.24
2017-10-26T22:53:46.840Z,16.23
2017-10-26T22:56:14.428Z,16.26
2017-10-26T22:58:42.147Z,16.29
2017-10-26T23:01:09.703Z,16.26
2017-10-26T23:03:37.271Z,16.33
2017-10-26T23:06:04.852Z,16.38
2017-10-26T23:08:32.372Z,16.46
2017-10-26T23:10:59.903Z,16.50
2017-10-26T23:13:27.908Z,16.59
2017-10-26T23:15:55.469Z,16.61
2017-10-26T23:18:23.027Z,16.65
2017-10-26T23:20:50.894Z,16.77
2017-10-26T23:23:18.453Z,16.75
2017-10-26T23:25:46.012Z,16.71
2017-10-26T23:28:13.863Z,16.62
2017-10-26T23:30:41.397Z,16.53
2017-10-26T23:33:08.915Z,16.30
2017-10-26T23:35:36.645Z,16.48
2017-10-26T23:38:04.219Z,16.48
2017-10-26T23:40:31.746Z,16.46
2017-10-26T23:42:59.541Z,16.48
2017-10-26T23:45:27.070Z,16.47
2017-10-26T23:47:54.592Z,16.41
2017-10-26T23:50:22.319Z,16.37
2017-10-26T23:52:49.879Z,16.40
2017-10-26T23:55:17.437Z,16.30
2017-10-26T23:57:45.315Z,16.26
